Toyama, Japan
Current Conditions -  °F | °C
As of 9:00 PM on Friday 24 Oct 2014 (Local Time) from RJNT Reporting Station
Clear Clear  
Wind Chill: 55°   Ceiling: Unl
Heat Index: 55°   Visibility: 6mi
Dew Point: 52°   Wind: 1mph
Humidity: 88%   Direction: NA
Pressure: 30.18"   Gusts: NA
Location:  36.7°N, 137.22°E
Report Text: RJNT 241200Z VRB01KT CAVOK 13/11 Q1022
Loading
Personal Weather Stations






























Interactive Weather Map
Tropical Storm Tracking
New forecast layout! Learn more

10-Day Weather Forecast

Advertisements
Track Severe Weather on mobile